createdAt,value
2022-09-07T00:00:58.044Z,97987.34
2022-09-07T00:03:24.676Z,97974.31
2022-09-07T00:05:52.316Z,97929.16
2022-09-07T00:08:22.019Z,97910.59
2022-09-07T00:10:54.096Z,97890.31
2022-09-07T00:13:21.294Z,97879.22
2022-09-07T00:15:47.795Z,97869.59
2022-09-07T00:18:14.325Z,97865.81
2022-09-07T00:20:41.685Z,97874.13
2022-09-07T00:23:08.142Z,97879.09
2022-09-07T00:25:39.263Z,97899.19
2022-09-07T00:28:07.701Z,97891.19
2022-09-07T00:30:35.081Z,97875.41
2022-09-07T00:33:01.527Z,97868.88
2022-09-07T00:35:28.007Z,97844.06
2022-09-07T00:37:54.457Z,97845.56
2022-09-07T00:40:20.888Z,97847.69
2022-09-07T00:42:47.394Z,97845.81
2022-09-07T00:45:17.639Z,97846.38
2022-09-07T00:48:03.205Z,97849.88
2022-09-07T00:50:35.304Z,97841.78
2022-09-07T00:53:08.916Z,97854.19
2022-09-07T00:55:37.988Z,97871.44
2022-09-07T00:58:06.059Z,97880.53
2022-09-07T01:00:33.157Z,97895.53
2022-09-07T01:04:01.658Z,97945.00
2022-09-07T01:10:40.374Z,98044.66
2022-09-07T01:13:06.883Z,98029.63
2022-09-07T01:15:51.343Z,98030.72
2022-09-07T01:18:25.999Z,98018.81
2022-09-07T01:21:25.358Z,98002.56
2022-09-07T01:24:19.757Z,97988.78
2022-09-07T01:31:22.422Z,97970.38
2022-09-07T01:34:06.504Z,97960.41
2022-09-07T01:36:50.432Z,97944.72
2022-09-07T01:39:21.910Z,97945.66
2022-09-07T01:41:58.425Z,97930.53
2022-09-07T01:44:27.806Z,97923.53
2022-09-07T01:47:08.688Z,97908.66
2022-09-07T01:53:58.549Z,97891.72
2022-09-07T01:56:35.001Z,97897.19
2022-09-07T01:59:10.466Z,97903.97
2022-09-07T02:01:46.398Z,97887.00
2022-09-07T02:04:39.067Z,97888.06
2022-09-07T02:07:20.862Z,97884.75
2022-09-07T02:09:56.702Z,97876.16
2022-09-07T02:12:42.154Z,97871.81
2022-09-07T02:15:18.310Z,97858.38
2022-09-07T02:17:51.827Z,97874.50
2022-09-07T02:20:33.141Z,97880.38
2022-09-07T02:23:02.674Z,97879.53
2022-09-07T02:25:37.814Z,97868.88
2022-09-07T02:28:09.220Z,97874.28
2022-09-07T02:30:36.057Z,97863.31
2022-09-07T02:33:02.604Z,97875.09
2022-09-07T02:35:29.291Z,97883.69
2022-09-07T02:37:56.751Z,97876.13
2022-09-07T02:40:23.256Z,97882.84
2022-09-07T02:42:50.324Z,97889.00
2022-09-07T02:45:17.739Z,97885.22
2022-09-07T02:48:10.542Z,97888.75
2022-09-07T02:50:49.867Z,97876.91
2022-09-07T02:53:28.333Z,97890.38
2022-09-07T02:56:07.775Z,97880.41
2022-09-07T02:58:49.142Z,97883.94
2022-09-07T03:01:21.334Z,97890.34
2022-09-07T03:04:01.708Z,97893.28
2022-09-07T03:06:42.990Z,97894.34
2022-09-07T03:09:19.607Z,97896.47
2022-09-07T03:11:46.706Z,97891.06
2022-09-07T03:14:22.871Z,97897.31
2022-09-07T03:16:51.738Z,97897.66
2022-09-07T03:19:18.520Z,97900.88
2022-09-07T03:21:45.394Z,97898.69
2022-09-07T03:24:11.863Z,97897.41
2022-09-07T03:26:41.636Z,97898.78
2022-09-07T03:29:08.181Z,97898.47
2022-09-07T03:31:34.836Z,97901.19
2022-09-07T03:34:01.498Z,97893.91
2022-09-07T03:36:30.270Z,97896.56
2022-09-07T03:38:58.657Z,97900.91
2022-09-07T03:41:26.283Z,97907.38
2022-09-07T03:43:53.246Z,97899.84
2022-09-07T03:46:20.031Z,97898.22
2022-09-07T03:48:47.825Z,97900.94
2022-09-07T03:51:16.208Z,97901.00
2022-09-07T03:53:44.818Z,97896.69
2022-09-07T03:56:20.677Z,97900.66
2022-09-07T03:58:49.710Z,97895.28
2022-09-07T04:01:20.420Z,97893.91
2022-09-07T04:03:48.029Z,97898.75
2022-09-07T04:06:15.349Z,97898.19
2022-09-07T04:08:42.849Z,97902.88
2022-09-07T04:11:13.333Z,97849.34
2022-09-07T04:13:40.773Z,97913.38
2022-09-07T04:16:20.674Z,97919.34
2022-09-07T04:18:50.199Z,97909.94
2022-09-07T04:21:17.433Z,97922.31
2022-09-07T04:23:44.601Z,97925.88
2022-09-07T04:26:17.939Z,97918.59
2022-09-07T04:28:45.450Z,97913.78
2022-09-07T04:31:13.644Z,97923.75
2022-09-07T04:33:40.195Z,97919.16
2022-09-07T04:36:06.931Z,97914.28
2022-09-07T04:38:33.493Z,97917.78
2022-09-07T04:41:02.289Z,97915.09
2022-09-07T04:43:29.834Z,97913.78
2022-09-07T04:45:56.484Z,97920.75
2022-09-07T04:48:22.948Z,97910.81
2022-09-07T04:50:49.399Z,97910.53
2022-09-07T04:53:15.870Z,97911.94
2022-09-07T04:55:42.284Z,97914.06
2022-09-07T04:58:08.718Z,97909.75
2022-09-07T05:00:35.737Z,97912.44
2022-09-07T05:03:02.176Z,97904.63
2022-09-07T05:05:28.639Z,97900.03
2022-09-07T05:07:55.066Z,97887.16
2022-09-07T05:10:21.676Z,97912.19
2022-09-07T05:12:48.141Z,97915.75
2022-09-07T05:15:14.709Z,97914.38
2022-09-07T05:17:41.128Z,97917.34
2022-09-07T05:20:07.854Z,97922.75
2022-09-07T05:22:35.580Z,97891.00
2022-09-07T05:25:02.256Z,97935.66
2022-09-07T05:27:28.731Z,97943.78
2022-09-07T05:32:25.060Z,97943.53
2022-09-07T05:34:53.071Z,97921.16
2022-09-07T05:37:19.661Z,97965.34
2022-09-07T05:39:46.176Z,97958.38
2022-09-07T05:42:12.683Z,97965.91
2022-09-07T05:47:08.869Z,97952.69
2022-09-07T05:49:35.305Z,97976.94
2022-09-07T05:52:01.908Z,97971.00
2022-09-07T05:54:28.349Z,97964.19
2022-09-07T05:56:54.864Z,97968.88
2022-09-07T05:59:21.294Z,97971.28
2022-09-07T06:01:47.747Z,97966.84
2022-09-07T06:04:14.485Z,97958.50
2022-09-07T06:06:40.925Z,97961.28
2022-09-07T06:09:07.908Z,97961.91
2022-09-07T06:11:34.417Z,97955.97
2022-09-07T06:14:00.885Z,97960.81
2022-09-07T06:16:27.468Z,97948.34
2022-09-07T06:18:54.516Z,97944.06
2022-09-07T06:21:23.525Z,97960.28
2022-09-07T06:23:51.284Z,97965.75
2022-09-07T06:26:19.375Z,97963.13
2022-09-07T06:28:49.848Z,97969.03
2022-09-07T06:31:22.913Z,97956.47
2022-09-07T06:33:50.790Z,97963.84
2022-09-07T06:36:19.399Z,97930.38
2022-09-07T06:38:47.000Z,97972.69
2022-09-07T06:44:19.843Z,97960.66
2022-09-07T06:49:28.160Z,97967.88
2022-09-07T06:51:54.677Z,97971.59
2022-09-07T06:57:10.735Z,97979.69
2022-09-07T06:59:38.212Z,97982.09
2022-09-07T07:02:06.311Z,97985.22
2022-09-07T07:04:37.774Z,97980.50
2022-09-07T07:07:10.701Z,97978.59
2022-09-07T07:09:37.438Z,97985.47
2022-09-07T07:12:03.987Z,97992.16
2022-09-07T07:14:33.808Z,97986.94
2022-09-07T07:17:01.874Z,97978.31
2022-09-07T07:19:28.479Z,97982.44
2022-09-07T07:22:29.658Z,97990.88
2022-09-07T07:24:42.561Z,97982.94
2022-09-07T07:27:08.972Z,97981.91
2022-09-07T07:29:35.502Z,97979.03
2022-09-07T07:32:02.142Z,97979.91
2022-09-07T07:34:29.170Z,97986.53
2022-09-07T07:36:55.663Z,97990.75
2022-09-07T07:42:08.973Z,97985.66
2022-09-07T07:44:35.477Z,97993.59
2022-09-07T07:47:02.861Z,97993.78
2022-09-07T07:49:29.296Z,97995.28
2022-09-07T07:54:43.249Z,97997.75
2022-09-07T07:57:10.770Z,98007.91
2022-09-07T07:59:37.593Z,98009.94
2022-09-07T08:02:06.168Z,97998.56
2022-09-07T08:04:35.742Z,97996.53
2022-09-07T08:07:09.151Z,98008.91
2022-09-07T08:09:37.256Z,98003.91
2022-09-07T08:12:03.975Z,98006.22
2022-09-07T08:14:30.385Z,98007.03
2022-09-07T08:16:56.812Z,98010.88
2022-09-07T08:19:23.409Z,98017.06
2022-09-07T08:21:49.840Z,98011.22
2022-09-07T08:24:16.273Z,98019.84
2022-09-07T08:26:42.671Z,97998.78
2022-09-07T08:29:09.065Z,97999.25
2022-09-07T08:31:35.510Z,98009.88
2022-09-07T08:34:02.094Z,98019.13
2022-09-07T08:36:28.718Z,98021.94
2022-09-07T08:38:55.180Z,98027.72
2022-09-07T08:41:31.944Z,98020.03
2022-09-07T08:44:06.434Z,98028.59
2022-09-07T08:46:57.393Z,97987.94
2022-09-07T08:49:33.678Z,98033.88
2022-09-07T08:52:16.612Z,98035.34
2022-09-07T08:54:50.074Z,98040.84
2022-09-07T08:57:25.739Z,98033.53
2022-09-07T09:00:04.706Z,98041.72
2022-09-07T09:02:34.903Z,98047.75
2022-09-07T09:05:18.266Z,98040.97
2022-09-07T09:08:10.541Z,98044.34
2022-09-07T09:10:53.454Z,98029.31
2022-09-07T09:13:42.854Z,98016.06
2022-09-07T09:17:01.794Z,98036.94
2022-09-07T09:20:06.697Z,98039.19
2022-09-07T09:22:34.632Z,98030.81
2022-09-07T09:25:22.530Z,98034.91
2022-09-07T09:27:49.520Z,98034.13
2022-09-07T09:30:21.763Z,97985.38
2022-09-07T09:33:11.354Z,98041.19
2022-09-07T09:35:39.334Z,98027.31
2022-09-07T09:38:29.874Z,98036.28
2022-09-07T09:40:59.189Z,98026.75
2022-09-07T09:43:33.932Z,98017.06
2022-09-07T09:46:16.929Z,98023.34
2022-09-07T09:48:43.610Z,98017.41
2022-09-07T09:54:07.623Z,97990.09
2022-09-07T09:56:43.668Z,98001.16
2022-09-07T10:05:25.838Z,97995.94
2022-09-07T10:07:53.408Z,97984.97
2022-09-07T10:10:19.920Z,97976.72
2022-09-07T10:12:46.648Z,97978.66
2022-09-07T10:15:50.111Z,97985.28
2022-09-07T10:18:27.228Z,97983.91
2022-09-07T10:21:12.080Z,97984.34
2022-09-07T10:23:38.719Z,97985.69
2022-09-07T10:26:27.398Z,97999.34
2022-09-07T10:29:36.363Z,97988.69
2022-09-07T10:32:26.848Z,97994.56
2022-09-07T10:35:15.457Z,97994.56
2022-09-07T10:38:15.796Z,98002.84
2022-09-07T10:41:07.287Z,97999.91
2022-09-07T10:43:39.863Z,97998.19
2022-09-07T10:46:55.875Z,97994.56
2022-09-07T10:49:33.832Z,97988.91
2022-09-07T10:52:12.745Z,97986.41
2022-09-07T10:55:04.205Z,97991.66
2022-09-07T10:58:15.879Z,97990.78
2022-09-07T11:01:05.229Z,97977.97
2022-09-07T11:03:41.074Z,97970.22
2022-09-07T11:06:22.566Z,97977.63
2022-09-07T11:09:20.764Z,97976.88
2022-09-07T11:12:06.470Z,97964.81
2022-09-07T11:14:41.258Z,97983.72
2022-09-07T11:17:52.765Z,97971.22
2022-09-07T11:20:32.082Z,97964.97
2022-09-07T11:23:14.582Z,97973.19
2022-09-07T11:25:53.929Z,97920.75
2022-09-07T11:28:41.302Z,97960.53
2022-09-07T11:31:17.599Z,97969.41
2022-09-07T11:36:50.034Z,97959.50
2022-09-07T11:39:23.380Z,97961.56
2022-09-07T11:42:01.002Z,97966.22
2022-09-07T11:44:49.801Z,97956.84
2022-09-07T11:47:33.861Z,97962.22
2022-09-07T11:50:00.338Z,97939.41
2022-09-07T11:52:56.420Z,97949.41
2022-09-07T11:55:27.336Z,97948.28
2022-09-07T11:58:24.657Z,97949.41
2022-09-07T12:01:06.422Z,97950.69
2022-09-07T12:04:15.332Z,97940.88
2022-09-07T12:07:09.562Z,97942.91
2022-09-07T12:09:54.649Z,97941.66
2022-09-07T12:12:40.901Z,97940.63
2022-09-07T12:15:28.658Z,97942.78
2022-09-07T12:18:03.984Z,97935.00
2022-09-07T12:20:44.551Z,97937.66
2022-09-07T12:23:16.647Z,97930.69
2022-09-07T12:25:45.533Z,97937.38
2022-09-07T12:28:35.066Z,97889.25
2022-09-07T12:31:06.916Z,97932.75
2022-09-07T12:33:38.460Z,97930.53
2022-09-07T12:36:26.876Z,97914.78
2022-09-07T12:39:25.069Z,97919.81
2022-09-07T12:45:30.887Z,97909.41
2022-09-07T12:47:59.396Z,97916.22
2022-09-07T12:50:38.188Z,97912.38
2022-09-07T12:53:33.415Z,97904.16
2022-09-07T12:56:36.273Z,97909.88
2022-09-07T12:59:21.671Z,97911.06
2022-09-07T13:01:54.293Z,97909.41
2022-09-07T13:04:31.109Z,97921.34
2022-09-07T13:07:35.262Z,97909.88
2022-09-07T13:10:04.408Z,97909.81
2022-09-07T13:12:54.763Z,97884.56
2022-09-07T13:15:43.561Z,97902.94
2022-09-07T13:18:36.033Z,97912.97
2022-09-07T13:21:08.679Z,97906.47
2022-09-07T13:23:39.709Z,97908.00
2022-09-07T13:26:27.051Z,97900.56
2022-09-07T13:28:57.900Z,97889.72
2022-09-07T13:31:43.256Z,97884.63
2022-09-07T13:34:34.461Z,97884.63
2022-09-07T13:37:03.254Z,97884.19
2022-09-07T13:39:43.602Z,97885.19
2022-09-07T13:42:17.734Z,97888.06
2022-09-07T13:44:53.136Z,97887.94
2022-09-07T13:47:31.637Z,97895.88
2022-09-07T13:50:18.321Z,97900.81
2022-09-07T13:53:22.135Z,97895.06
2022-09-07T13:56:11.452Z,97892.28
2022-09-07T13:58:41.843Z,97897.41
2022-09-07T14:01:18.891Z,97896.31
2022-09-07T14:03:51.249Z,97893.97
2022-09-07T14:06:20.407Z,97894.78
2022-09-07T14:08:49.282Z,97904.69
2022-09-07T14:11:25.450Z,97892.97
2022-09-07T14:14:09.839Z,97876.16
2022-09-07T14:16:37.053Z,97872.22
2022-09-07T14:19:10.726Z,97862.69
2022-09-07T14:21:37.353Z,97869.94
2022-09-07T14:24:18.861Z,97868.03
2022-09-07T14:26:47.883Z,97860.66
2022-09-07T14:29:26.558Z,97869.50
2022-09-07T14:31:54.301Z,97852.19
2022-09-07T14:34:24.485Z,97861.59
2022-09-07T14:36:51.972Z,97869.50
2022-09-07T14:39:22.013Z,97874.47
2022-09-07T14:41:49.232Z,97874.94
2022-09-07T14:44:34.126Z,97861.47
2022-09-07T14:47:05.890Z,97853.75
2022-09-07T14:49:32.540Z,97858.84
2022-09-07T14:52:00.778Z,97847.81
2022-09-07T14:54:31.635Z,97855.00
2022-09-07T14:57:05.488Z,97854.31
2022-09-07T14:59:45.962Z,97842.53
2022-09-07T15:02:18.436Z,97852.06
2022-09-07T15:05:09.739Z,97840.19
2022-09-07T15:07:45.924Z,97839.91
2022-09-07T15:10:21.731Z,97854.91
2022-09-07T15:12:54.407Z,97816.16
2022-09-07T15:15:27.244Z,97841.66
2022-09-07T15:17:55.784Z,97850.19
2022-09-07T15:20:43.980Z,97848.16
2022-09-07T15:23:13.528Z,97835.47
2022-09-07T15:25:43.302Z,97831.63
2022-09-07T15:29:08.090Z,97829.88
2022-09-07T15:33:57.666Z,97837.94
2022-09-07T15:36:24.158Z,97829.59
2022-09-07T15:39:05.818Z,97830.25
2022-09-07T15:41:32.600Z,97827.38
2022-09-07T15:43:59.273Z,97827.53
2022-09-07T15:46:26.341Z,97847.59
2022-09-07T15:48:54.954Z,97848.22
2022-09-07T15:54:14.031Z,97855.31
2022-09-07T15:56:42.690Z,97852.59
2022-09-07T15:59:10.694Z,97844.88
2022-09-07T16:01:54.795Z,97842.50
2022-09-07T16:04:24.018Z,97827.91
2022-09-07T16:06:50.675Z,97843.28
2022-09-07T16:09:17.441Z,97831.91
2022-09-07T16:11:44.344Z,97832.56
2022-09-07T16:14:12.325Z,97800.66
2022-09-07T16:19:25.996Z,97834.97
2022-09-07T16:21:52.673Z,97835.25
2022-09-07T16:24:19.099Z,97826.44
2022-09-07T16:26:45.601Z,97818.09
2022-09-07T16:29:12.054Z,97811.53
2022-09-07T16:31:38.884Z,97812.00
2022-09-07T16:34:25.006Z,97805.13
2022-09-07T16:36:52.019Z,97801.59
2022-09-07T16:39:19.252Z,97799.97
2022-09-07T16:41:45.783Z,97810.72
2022-09-07T16:44:12.256Z,97787.50
2022-09-07T16:46:38.915Z,97799.03
2022-09-07T16:49:07.145Z,97799.97
2022-09-07T16:51:34.502Z,97806.97
2022-09-07T16:54:01.054Z,97770.09
2022-09-07T16:56:30.360Z,97783.88
2022-09-07T16:59:01.484Z,97786.25
2022-09-07T17:01:31.494Z,97771.34
2022-09-07T17:03:58.994Z,97794.13
2022-09-07T17:06:26.909Z,97792.69
2022-09-07T17:08:53.381Z,97767.03
2022-09-07T17:11:23.063Z,97789.44
2022-09-07T17:13:50.958Z,97793.44
2022-09-07T17:16:23.327Z,97787.69
2022-09-07T17:21:38.667Z,97788.00
2022-09-07T17:24:07.606Z,97791.19
2022-09-07T17:26:34.050Z,97798.03
2022-09-07T17:29:01.169Z,97801.56
2022-09-07T17:34:20.578Z,97795.25
2022-09-07T17:36:47.453Z,97794.59
2022-09-07T17:39:17.550Z,97787.09
2022-09-07T17:41:46.515Z,97788.47
2022-09-07T17:44:12.900Z,97785.44
2022-09-07T17:46:39.473Z,97773.63
2022-09-07T17:49:10.016Z,97781.56
2022-09-07T17:51:36.444Z,97772.53
2022-09-07T17:54:13.198Z,97773.13
2022-09-07T17:56:41.086Z,97770.13
2022-09-07T18:01:55.296Z,97765.59
2022-09-07T18:04:22.325Z,97763.00
2022-09-07T18:06:48.879Z,97769.84
2022-09-07T18:09:15.949Z,97774.22
2022-09-07T18:11:46.890Z,97781.06
2022-09-07T18:14:15.057Z,97771.50
2022-09-07T18:16:42.513Z,97779.03
2022-09-07T18:19:11.660Z,97780.84
2022-09-07T18:21:41.006Z,97793.59
2022-09-07T18:24:13.574Z,97797.13
2022-09-07T18:26:41.146Z,97805.38
2022-09-07T18:29:26.019Z,97805.22
2022-09-07T18:31:54.493Z,97804.06
2022-09-07T18:34:21.097Z,97804.06
2022-09-07T18:36:47.989Z,97785.78
2022-09-07T18:39:14.593Z,97814.91
2022-09-07T18:41:41.959Z,97816.50
2022-09-07T18:45:27.299Z,97829.94
2022-09-07T18:46:55.334Z,97824.94
2022-09-07T18:49:21.758Z,97813.97
2022-09-07T18:54:34.650Z,97798.59
2022-09-07T18:57:01.141Z,97817.78
2022-09-07T18:59:28.088Z,97820.56
2022-09-07T19:02:01.310Z,97810.75
2022-09-07T19:07:17.515Z,97790.41
2022-09-07T19:09:43.930Z,97780.84
2022-09-07T19:12:10.411Z,97770.63
2022-09-07T19:14:36.870Z,97754.56
2022-09-07T19:17:03.526Z,97732.22
2022-09-07T19:19:30.303Z,97714.22
2022-09-07T19:21:58.384Z,97699.72
2022-09-07T19:24:25.709Z,97691.53
2022-09-07T19:26:53.919Z,97680.22
2022-09-07T19:29:23.697Z,97668.97
2022-09-07T19:32:05.551Z,97652.47
2022-09-07T19:34:37.389Z,97671.53
2022-09-07T19:37:05.611Z,97679.06
2022-09-07T19:39:33.138Z,97675.97
2022-09-07T19:41:59.903Z,97682.22
2022-09-07T19:44:26.445Z,97687.66
2022-09-07T19:46:52.868Z,97687.84
2022-09-07T19:49:20.376Z,97690.09
2022-09-07T19:51:49.359Z,97694.41
2022-09-07T19:54:15.770Z,97688.50
2022-09-07T19:56:42.791Z,97693.53
2022-09-07T19:59:09.662Z,97692.63
2022-09-07T20:01:37.768Z,97702.34
2022-09-07T20:04:07.685Z,97704.72
2022-09-07T20:06:37.040Z,97700.94
2022-09-07T20:09:04.518Z,97707.00
2022-09-07T20:11:32.204Z,97701.00
2022-09-07T20:13:58.855Z,97691.50
2022-09-07T20:16:26.202Z,97682.31
2022-09-07T20:18:52.992Z,97683.16
2022-09-07T20:21:24.347Z,97689.34
2022-09-07T20:23:51.150Z,97676.13
2022-09-07T20:26:20.330Z,97692.13
2022-09-07T20:29:01.964Z,97685.56
2022-09-07T20:31:39.210Z,97688.63
2022-09-07T20:34:05.947Z,97676.56
2022-09-07T20:36:32.384Z,97694.22
2022-09-07T20:38:58.845Z,97696.88
2022-09-07T20:41:28.740Z,97693.69
2022-09-07T20:43:58.227Z,97696.06
2022-09-07T20:46:28.318Z,97688.94
2022-09-07T20:48:55.682Z,97712.16
2022-09-07T20:51:22.973Z,97701.94
2022-09-07T20:53:50.166Z,97713.75
2022-09-07T20:56:21.481Z,97708.34
2022-09-07T20:58:49.573Z,97705.38
2022-09-07T21:01:17.966Z,97692.00
2022-09-07T21:03:50.207Z,97685.53
2022-09-07T21:06:17.678Z,97688.63
2022-09-07T21:08:45.470Z,97697.47
2022-09-07T21:11:27.195Z,97696.72
2022-09-07T21:13:59.384Z,97701.06
2022-09-07T21:16:26.817Z,97691.69
2022-09-07T21:18:59.527Z,97697.53
2022-09-07T21:21:27.239Z,97685.59
2022-09-07T21:23:59.008Z,97700.56
2022-09-07T21:26:30.450Z,97694.41
2022-09-07T21:28:59.104Z,97692.28
2022-09-07T21:31:26.490Z,97688.81
2022-09-07T21:33:54.824Z,97683.97
2022-09-07T21:36:21.759Z,97686.78
2022-09-07T21:38:48.461Z,97680.25
2022-09-07T21:41:17.232Z,97678.75
2022-09-07T21:43:43.950Z,97676.56
2022-09-07T21:46:16.456Z,97685.22
2022-09-07T21:48:43.515Z,97679.66
2022-09-07T21:51:09.991Z,97678.63
2022-09-07T21:53:36.411Z,97662.47
2022-09-07T21:56:05.140Z,97669.06
2022-09-07T21:58:33.212Z,97667.88
2022-09-07T22:01:03.695Z,97681.06
2022-09-07T22:03:30.337Z,97670.47
2022-09-07T22:06:01.550Z,97657.25
2022-09-07T22:08:28.008Z,97660.09
2022-09-07T22:10:54.415Z,97655.97
2022-09-07T22:13:20.990Z,97652.38
2022-09-07T22:15:47.977Z,97651.38
2022-09-07T22:18:14.430Z,97646.34
2022-09-07T22:20:40.994Z,97639.09
2022-09-07T22:23:07.393Z,97641.88
2022-09-07T22:25:34.747Z,97639.16
2022-09-07T22:28:01.461Z,97631.53
2022-09-07T22:30:28.062Z,97642.00
2022-09-07T22:32:54.651Z,97638.19
2022-09-07T22:35:23.286Z,97643.00
2022-09-07T22:37:49.749Z,97634.47
2022-09-07T22:40:16.341Z,97627.75
2022-09-07T22:42:42.789Z,97639.91
2022-09-07T22:45:10.006Z,97630.19
2022-09-07T22:47:36.622Z,97641.06
2022-09-07T22:50:03.230Z,97667.22
2022-09-07T22:52:29.662Z,97691.16
2022-09-07T22:54:56.101Z,97697.88
2022-09-07T22:57:23.303Z,97675.31
2022-09-07T22:59:49.801Z,97671.19
2022-09-07T23:02:16.174Z,97685.41
2022-09-07T23:04:42.671Z,97670.69
2022-09-07T23:07:09.359Z,97670.34
2022-09-07T23:09:36.018Z,97676.91
2022-09-07T23:12:02.695Z,97663.81
2022-09-07T23:14:29.271Z,97654.16
2022-09-07T23:16:55.629Z,97600.50
2022-09-07T23:19:22.213Z,97653.84
2022-09-07T23:21:48.871Z,97648.94
2022-09-07T23:24:17.735Z,97638.53
2022-09-07T23:26:44.544Z,97637.69
2022-09-07T23:29:12.654Z,97635.75
2022-09-07T23:31:40.134Z,97616.47
2022-09-07T23:34:07.805Z,97635.09
2022-09-07T23:36:34.253Z,97628.91
2022-09-07T23:39:01.131Z,97615.00
2022-09-07T23:41:27.827Z,97606.16
2022-09-07T23:43:55.015Z,97611.06
2022-09-07T23:46:22.169Z,97601.13
2022-09-07T23:48:49.101Z,97604.13
2022-09-07T23:51:19.911Z,97598.53
2022-09-07T23:53:49.477Z,97581.53
2022-09-07T23:56:15.939Z,97586.78
2022-09-07T23:58:42.329Z,97577.94
